Wilsall, MT

9:51 AM MDT on August 30, 2014 (GMT -0600)
Wilsall | Change Station
CLOSE
Current Station
Personal Weather Station
Location: Wilsall, MT
Elevation: 5177 ft
Nearby Weather Stations

Elev 5177 ft 45.99 °N, 110.66 °W | Updated 1 minute ago

Partly Cloudy
Partly Cloudy
54.3 °F
Feels Like 54.3 °F
N
0.0
Wind Variable Wind from North
Gusts 4.0 mph

Today
High -- | Low -- °F
--% Chance of Precip.
Yesterday
High -- | Low -- °F
Precip. -- in
6:41 AM 8:04 PM
Waxing Crescent, 22% visible
Pressure 29.78 in
Visibility 10.0 miles
Clouds Few 11000 ft
Dew Point 28 °F
Humidity 36%
Rainfall 0.08 in
Snow Depth 1 in , 0 in , 0 in
UV 2 out of 12
Pollen 6.80 out of 12
Air Quality Not available.
Flu Activity Not available.
METAR KLVM 301453Z AUTO 28009KT 10SM FEW110 14/11 A2989 RMK AO2 RAB04E26 SLP084 P0001 60021 T01390106 50006

More Conditions Fewer Conditions

Pressure 29.78 in
Visibility 10.0 miles
Clouds Few 11000 ft
Dew Point 28 °F
Humidity 36%
Rainfall 0.08 in
Snow Depth 1 in , 0 in , 0 in
UV 2 out of 12
Pollen 6.80 out of 12
Air Quality Not available.
Flu Activity Not available.
METAR KLVM 301453Z AUTO 28009KT 10SM FEW110 14/11 A2989 RMK AO2 RAB04E26 SLP084 P0001 60021 T01390106 50006

More Conditions Fewer Conditions

10-Day Weather Forecast

Almanac

Astronomy

Aug. 30, 2014 Rise Set
Actual Time 6:41 AM MDT 8:04 PM MDT
Civil Twilight 6:09 AM MDT 8:35 PM MDT
Nautical Twilight 5:32 AM MDT 9:13 PM MDT
Astronomical Twilight 4:51 AM MDT 9:53 PM MDT
Moon 11:49 AM MDT 10:22 PM MDT
Length of Visible Light 14h 25m
Length of Day
13h 23m
Tomorrow will be 3m 7s shorter.
Waxing Crescent, 22% of the Moon is Illuminated
Today
Waxing Crescent
Sep 2
First Quarter
Sep 8
Full
Sep 15
Last Quarter
Sep 24
New

Today's Extremes

State Highs State Lows

Community

WunderPhotos

Upload Photos

1,748,550 photos uploaded!

WunderBlogs® & News

Nearby

Snow Depth

Station Depth Elevation
Porcupine 1 in 6500 ft
South Fork Shields 0 in 8100 ft
Sacajawea 0 in 6550 ft
Lick Creek 0 in 6860 ft
Pickfoot Creek 0 in 6650 ft

Earthquake Activity

City Distance Mag. Time & Date
No recent earthquake activity has been reported nearby.
Minimum magnitude displayed is 2.5.

Coastal Water Temperatures

Place Temperature
No Stations Reporting

Nearby Weather Stations